createdAt,value
2023-05-14T00:02:14.323Z,30.08
2023-05-14T00:04:41.682Z,30.05
2023-05-14T00:07:08.735Z,30.08
2023-05-14T00:09:36.419Z,29.99
2023-05-14T00:12:03.945Z,30.01
2023-05-14T00:14:31.740Z,30.03
2023-05-14T00:16:59.871Z,30.01
2023-05-14T00:19:27.386Z,30.02
2023-05-14T00:21:54.411Z,29.88
2023-05-14T00:24:21.396Z,30.01
2023-05-14T00:26:48.427Z,29.88
2023-05-14T00:29:15.470Z,29.87
2023-05-14T00:31:43.022Z,29.93
2023-05-14T00:34:10.086Z,29.98
2023-05-14T00:36:37.146Z,29.96
2023-05-14T00:39:04.460Z,29.82
2023-05-14T00:41:31.554Z,29.94
2023-05-14T00:43:58.624Z,29.94
2023-05-14T00:46:26.026Z,29.91
2023-05-14T00:48:53.652Z,29.79
2023-05-14T00:51:21.015Z,29.83
2023-05-14T00:53:48.992Z,29.81
2023-05-14T00:56:16.927Z,29.88
2023-05-14T00:58:44.360Z,29.82
2023-05-14T01:01:12.461Z,29.81
2023-05-14T01:03:39.900Z,29.78
2023-05-14T01:06:29.317Z,29.78
2023-05-14T01:09:27.012Z,29.71
2023-05-14T01:12:00.250Z,29.67
2023-05-14T01:14:48.887Z,29.66
2023-05-14T01:17:20.474Z,29.60
2023-05-14T01:19:48.869Z,29.67
2023-05-14T01:22:16.633Z,29.57
2023-05-14T01:24:43.974Z,29.69
2023-05-14T01:27:25.929Z,29.73
2023-05-14T01:30:08.539Z,29.67
2023-05-14T01:32:36.924Z,29.65
2023-05-14T01:35:05.089Z,29.60
2023-05-14T01:37:33.299Z,29.57
2023-05-14T01:40:01.249Z,29.68
2023-05-14T01:42:29.566Z,29.53
2023-05-14T01:44:56.838Z,29.51
2023-05-14T01:47:23.859Z,29.65
2023-05-14T01:49:51.222Z,29.53
2023-05-14T01:52:21.389Z,29.65
2023-05-14T01:54:48.825Z,29.64
2023-05-14T01:57:16.272Z,29.58
2023-05-14T01:59:43.323Z,29.48
2023-05-14T02:02:10.365Z,29.60
2023-05-14T02:04:37.322Z,29.50
2023-05-14T02:07:04.448Z,29.62
2023-05-14T02:09:31.416Z,29.60
2023-05-14T02:11:58.381Z,29.48
2023-05-14T02:14:25.399Z,29.41
2023-05-14T02:16:52.502Z,29.41
2023-05-14T02:19:19.649Z,29.42
2023-05-14T02:21:47.496Z,29.55
2023-05-14T02:24:14.707Z,29.43
2023-05-14T02:26:42.318Z,29.41
2023-05-14T02:29:09.503Z,29.55
2023-05-14T02:31:36.593Z,29.57
2023-05-14T02:34:09.673Z,29.51
2023-05-14T02:36:36.700Z,29.46
2023-05-14T02:39:04.995Z,29.57
2023-05-14T02:41:32.101Z,29.58
2023-05-14T02:43:59.224Z,29.57
2023-05-14T02:46:26.456Z,29.60
2023-05-14T02:48:53.933Z,29.60
2023-05-14T02:51:21.676Z,29.48
2023-05-14T02:53:48.785Z,29.62
2023-05-14T02:56:15.891Z,29.59
2023-05-14T02:58:43.045Z,29.64
2023-05-14T03:01:10.175Z,29.63
2023-05-14T03:03:38.699Z,29.64
2023-05-14T03:06:06.253Z,29.65
2023-05-14T03:08:33.250Z,29.64
2023-05-14T03:11:00.380Z,29.62
2023-05-14T03:13:27.357Z,29.54
2023-05-14T03:15:55.246Z,29.62
2023-05-14T03:18:22.405Z,29.49
2023-05-14T03:20:49.661Z,29.62
2023-05-14T03:23:16.997Z,29.52
2023-05-14T03:25:44.308Z,29.56
2023-05-14T03:28:11.323Z,29.53
2023-05-14T03:30:38.430Z,29.64
2023-05-14T03:33:05.655Z,29.63
2023-05-14T03:35:32.804Z,29.50
2023-05-14T03:38:00.157Z,29.65
2023-05-14T03:40:27.471Z,29.53
2023-05-14T03:42:54.457Z,29.67
2023-05-14T03:45:21.522Z,29.56
2023-05-14T03:47:48.684Z,29.58
2023-05-14T03:50:15.797Z,29.66
2023-05-14T03:52:43.793Z,29.53
2023-05-14T03:55:11.046Z,29.61
2023-05-14T03:57:38.425Z,29.65
2023-05-14T04:00:06.010Z,29.64
2023-05-14T04:02:33.114Z,29.63
2023-05-14T04:05:00.210Z,29.57
2023-05-14T04:07:27.195Z,29.52
2023-05-14T04:09:54.237Z,29.60
2023-05-14T04:12:21.280Z,29.61
2023-05-14T04:14:48.513Z,29.60
2023-05-14T04:17:15.810Z,29.44
2023-05-14T04:19:42.895Z,29.56
2023-05-14T04:22:10.060Z,29.56
2023-05-14T04:24:37.530Z,29.50
2023-05-14T04:27:04.858Z,29.56
2023-05-14T04:29:31.936Z,29.55
2023-05-14T04:31:59.296Z,29.47
2023-05-14T04:34:26.627Z,29.46
2023-05-14T04:36:53.704Z,29.47
2023-05-14T04:39:20.768Z,29.55
2023-05-14T04:41:47.782Z,29.53
2023-05-14T04:44:14.811Z,29.40
2023-05-14T04:46:41.888Z,29.40
2023-05-14T04:49:09.373Z,29.53
2023-05-14T04:51:36.456Z,29.45
2023-05-14T04:54:03.610Z,29.53
2023-05-14T04:56:30.581Z,29.53
2023-05-14T04:58:57.652Z,29.40
2023-05-14T05:01:24.830Z,29.38
2023-05-14T05:03:51.877Z,29.41
2023-05-14T05:06:19.182Z,29.50
2023-05-14T05:08:46.205Z,29.44
2023-05-14T05:11:13.216Z,29.55
2023-05-14T05:13:40.358Z,29.56
2023-05-14T05:16:07.879Z,29.57
2023-05-14T05:18:35.200Z,29.59
2023-05-14T05:21:02.270Z,29.46
2023-05-14T05:23:29.716Z,29.61
2023-05-14T05:25:56.772Z,29.63
2023-05-14T05:28:24.114Z,29.64
2023-05-14T05:30:51.252Z,29.53
2023-05-14T05:33:18.254Z,29.69
2023-05-14T05:35:45.269Z,29.67
2023-05-14T05:38:12.409Z,29.73
2023-05-14T05:40:39.431Z,29.70
2023-05-14T05:43:06.384Z,29.73
2023-05-14T05:45:33.525Z,29.76
2023-05-14T05:48:00.665Z,29.92
2023-05-14T05:50:27.748Z,29.95
2023-05-14T05:52:54.831Z,29.89
2023-05-14T05:55:21.996Z,30.03
2023-05-14T05:57:49.110Z,30.09
2023-05-14T06:00:17.331Z,30.18
2023-05-14T06:02:44.742Z,30.25
2023-05-14T06:05:12.442Z,30.22
2023-05-14T06:07:39.594Z,30.29
2023-05-14T06:10:07.351Z,30.42
2023-05-14T06:12:34.583Z,30.48
2023-05-14T06:15:01.847Z,30.56
2023-05-14T06:17:29.218Z,30.66
2023-05-14T06:19:56.237Z,30.72
2023-05-14T06:22:23.609Z,30.79
2023-05-14T06:24:50.766Z,30.81
2023-05-14T06:27:17.819Z,30.95
2023-05-14T06:29:44.955Z,31.02
2023-05-14T06:32:15.744Z,31.08
2023-05-14T06:34:43.226Z,31.14
2023-05-14T06:37:12.079Z,31.09
2023-05-14T06:39:39.684Z,31.13
2023-05-14T06:42:07.706Z,31.30
2023-05-14T06:44:34.803Z,31.31
2023-05-14T06:47:01.897Z,31.33
2023-05-14T06:49:29.073Z,31.23
2023-05-14T06:51:56.258Z,31.37
2023-05-14T06:54:23.394Z,31.42
2023-05-14T06:56:50.423Z,31.33
2023-05-14T06:59:17.510Z,31.40
2023-05-14T07:01:44.570Z,31.45
2023-05-14T07:04:11.635Z,31.38
2023-05-14T07:06:38.933Z,31.50
2023-05-14T07:09:07.067Z,31.55
2023-05-14T07:11:34.300Z,31.47
2023-05-14T07:14:01.334Z,31.51
2023-05-14T07:16:28.397Z,31.55
2023-05-14T07:18:55.561Z,31.74
2023-05-14T07:21:22.746Z,31.82
2023-05-14T07:23:49.706Z,31.87
2023-05-14T07:26:16.648Z,31.90
2023-05-14T07:28:43.693Z,31.90
2023-05-14T07:31:10.878Z,31.80
2023-05-14T07:33:38.791Z,31.89
2023-05-14T07:36:06.261Z,31.98
2023-05-14T07:38:33.366Z,32.06
2023-05-14T07:41:00.463Z,32.10
2023-05-14T07:43:27.679Z,32.12
2023-05-14T07:45:55.840Z,32.08
2023-05-14T07:48:22.965Z,32.14
2023-05-14T07:50:50.118Z,32.07
2023-05-14T07:53:17.151Z,32.27
2023-05-14T07:55:45.586Z,32.30
2023-05-14T07:58:12.615Z,32.33
2023-05-14T08:00:39.611Z,32.35
2023-05-14T08:03:06.876Z,32.40
2023-05-14T08:05:34.105Z,32.55
2023-05-14T08:08:01.819Z,32.64
2023-05-14T08:10:29.271Z,32.60
2023-05-14T08:12:56.627Z,32.58
2023-05-14T08:15:27.947Z,32.62
2023-05-14T08:17:55.140Z,32.68
2023-05-14T08:20:22.828Z,32.56
2023-05-14T08:22:50.009Z,32.56
2023-05-14T08:25:17.049Z,32.56
2023-05-14T08:27:44.063Z,32.60
2023-05-14T08:30:11.382Z,32.76
2023-05-14T08:32:38.826Z,32.79
2023-05-14T08:35:06.339Z,32.86
2023-05-14T08:37:33.439Z,32.92
2023-05-14T08:40:00.582Z,33.04
2023-05-14T08:42:29.606Z,33.02
2023-05-14T08:45:06.029Z,33.05
2023-05-14T08:47:34.574Z,33.16
2023-05-14T08:50:07.667Z,33.24
2023-05-14T08:52:35.432Z,33.31
2023-05-14T08:55:06.748Z,33.38
2023-05-14T08:57:34.666Z,33.38
2023-05-14T09:00:02.994Z,33.58
2023-05-14T09:02:31.777Z,33.65
2023-05-14T09:05:01.154Z,33.69
2023-05-14T09:07:28.800Z,33.75
2023-05-14T09:09:56.393Z,33.95
2023-05-14T09:12:23.716Z,33.92
2023-05-14T09:14:51.499Z,34.12
2023-05-14T09:17:19.561Z,34.22
2023-05-14T09:19:53.336Z,34.32
2023-05-14T09:22:21.371Z,34.32
2023-05-14T09:25:06.337Z,34.48
2023-05-14T09:27:34.232Z,34.52
2023-05-14T09:30:10.322Z,34.65
2023-05-14T09:32:39.463Z,34.69
2023-05-14T09:35:17.617Z,34.64
2023-05-14T09:37:49.910Z,34.79
2023-05-14T09:40:18.826Z,34.89
2023-05-14T09:42:46.153Z,34.87
2023-05-14T09:45:13.500Z,35.11
2023-05-14T09:47:40.992Z,35.28
2023-05-14T09:50:09.050Z,35.43
2023-05-14T09:52:36.360Z,35.64
2023-05-14T09:55:03.584Z,35.77
2023-05-14T09:57:30.612Z,35.97
2023-05-14T09:59:57.698Z,36.17
2023-05-14T10:02:27.099Z,36.40
2023-05-14T10:04:55.044Z,36.43
2023-05-14T10:07:33.380Z,36.61
2023-05-14T10:10:03.538Z,36.90
2023-05-14T10:12:35.094Z,37.07
2023-05-14T10:15:07.214Z,37.45
2023-05-14T10:17:38.231Z,37.72
2023-05-14T10:20:09.592Z,37.91
2023-05-14T10:22:36.683Z,38.18
2023-05-14T10:25:04.760Z,38.43
2023-05-14T10:27:32.541Z,38.74
2023-05-14T10:29:59.519Z,39.02
2023-05-14T10:32:27.014Z,39.32
2023-05-14T10:34:54.521Z,39.41
2023-05-14T10:37:27.998Z,39.75
2023-05-14T10:39:59.286Z,40.15
2023-05-14T10:42:37.825Z,40.29
2023-05-14T10:45:10.483Z,40.60
2023-05-14T10:47:40.470Z,40.79
2023-05-14T10:50:10.752Z,41.03
2023-05-14T10:52:38.133Z,41.22
2023-05-14T10:55:08.033Z,41.42
2023-05-14T10:57:38.846Z,41.56
2023-05-14T11:00:11.047Z,41.73
2023-05-14T11:02:43.415Z,41.56
2023-05-14T11:05:14.351Z,41.57
2023-05-14T11:07:42.984Z,41.60
2023-05-14T11:10:26.156Z,41.56
2023-05-14T11:12:53.363Z,41.63
2023-05-14T11:15:22.708Z,41.73
2023-05-14T11:17:51.320Z,41.70
2023-05-14T11:20:19.218Z,41.73
2023-05-14T11:22:48.298Z,41.48
2023-05-14T11:25:15.868Z,41.56
2023-05-14T11:27:47.798Z,41.09
2023-05-14T11:30:19.760Z,41.02
2023-05-14T11:32:50.189Z,41.06
2023-05-14T11:35:18.590Z,41.15
2023-05-14T11:37:54.389Z,40.83
2023-05-14T11:40:21.839Z,41.02
2023-05-14T11:42:53.644Z,41.15
2023-05-14T11:45:28.039Z,41.24
2023-05-14T11:47:55.154Z,41.31
2023-05-14T11:50:23.360Z,41.57
2023-05-14T11:52:51.359Z,41.73
2023-05-14T11:55:18.808Z,41.81
2023-05-14T11:57:45.980Z,41.88
2023-05-14T12:00:21.920Z,42.09
2023-05-14T12:02:50.300Z,42.13
2023-05-14T12:05:17.655Z,42.38
2023-05-14T12:07:48.200Z,42.04
2023-05-14T12:10:15.724Z,41.67
2023-05-14T12:12:46.446Z,41.42
2023-05-14T12:15:14.881Z,41.59
2023-05-14T12:17:41.900Z,41.21
2023-05-14T12:20:13.797Z,41.08
2023-05-14T12:22:42.707Z,41.31
2023-05-14T12:25:13.981Z,41.60
2023-05-14T12:27:41.895Z,41.92
2023-05-14T12:32:41.479Z,42.37
2023-05-14T12:35:09.778Z,42.48
2023-05-14T12:37:37.810Z,42.74
2023-05-14T12:40:09.525Z,42.83
2023-05-14T12:42:36.940Z,42.49
2023-05-14T12:45:07.546Z,42.71
2023-05-14T12:47:34.889Z,42.83
2023-05-14T12:50:02.259Z,43.06
2023-05-14T12:54:59.511Z,43.12
2023-05-14T12:57:28.014Z,43.22
2023-05-14T12:59:55.738Z,43.33
2023-05-14T13:02:22.750Z,43.41
2023-05-14T13:04:49.818Z,43.45
2023-05-14T13:07:16.822Z,43.67
2023-05-14T13:09:43.936Z,43.71
2023-05-14T13:12:11.039Z,43.79
2023-05-14T13:14:38.080Z,44.00
2023-05-14T13:17:05.830Z,44.07
2023-05-14T13:19:33.035Z,44.24
2023-05-14T13:22:00.025Z,44.24
2023-05-14T13:24:27.095Z,44.46
2023-05-14T13:26:54.192Z,44.57
2023-05-14T13:29:21.241Z,44.65
2023-05-14T13:31:48.229Z,44.59
2023-05-14T13:34:15.295Z,44.23
2023-05-14T13:36:43.863Z,44.46
2023-05-14T13:39:13.650Z,44.59
2023-05-14T13:41:41.758Z,44.17
2023-05-14T13:44:08.749Z,43.67
2023-05-14T13:46:35.847Z,43.65
2023-05-14T13:49:03.065Z,43.49
2023-05-14T13:51:30.052Z,43.33
2023-05-14T13:53:58.466Z,43.09
2023-05-14T13:56:26.228Z,42.69
2023-05-14T13:58:53.282Z,42.41
2023-05-14T14:01:20.368Z,42.20
2023-05-14T14:03:47.604Z,42.07
2023-05-14T14:06:14.665Z,41.92
2023-05-14T14:08:41.984Z,41.87
2023-05-14T14:11:09.100Z,41.61
2023-05-14T14:13:37.511Z,41.57
2023-05-14T14:16:06.517Z,41.47
2023-05-14T14:18:34.399Z,41.38
2023-05-14T14:21:01.515Z,41.21
2023-05-14T14:23:28.555Z,40.99
2023-05-14T14:25:55.667Z,41.01
2023-05-14T14:28:22.671Z,40.90
2023-05-14T14:30:50.767Z,40.80
2023-05-14T14:33:17.805Z,40.86
2023-05-14T14:35:44.828Z,40.86
2023-05-14T14:38:11.853Z,40.74
2023-05-14T14:40:39.235Z,40.54
2023-05-14T14:43:21.515Z,40.60
2023-05-14T14:45:49.166Z,40.49
2023-05-14T14:48:38.110Z,40.43
2023-05-14T14:51:07.079Z,40.30
2023-05-14T14:53:35.375Z,40.29
2023-05-14T14:56:03.152Z,40.16
2023-05-14T14:58:31.406Z,40.19
2023-05-14T15:00:58.801Z,40.11
2023-05-14T15:03:26.912Z,40.11
2023-05-14T15:05:54.574Z,40.07
2023-05-14T15:08:27.654Z,39.94
2023-05-14T15:10:57.021Z,39.90
2023-05-14T15:13:24.883Z,39.80
2023-05-14T15:15:52.835Z,39.81
2023-05-14T15:18:20.152Z,39.71
2023-05-14T15:20:47.166Z,39.64
2023-05-14T15:23:14.254Z,39.54
2023-05-14T15:25:41.296Z,39.46
2023-05-14T15:28:08.421Z,39.38
2023-05-14T15:30:35.768Z,39.22
2023-05-14T15:33:02.999Z,39.23
2023-05-14T15:35:30.333Z,39.18
2023-05-14T15:37:57.585Z,39.15
2023-05-14T15:40:25.103Z,39.05
2023-05-14T15:42:52.495Z,39.07
2023-05-14T15:45:19.658Z,38.93
2023-05-14T15:47:46.800Z,38.97
2023-05-14T15:50:13.845Z,38.93
2023-05-14T15:52:41.675Z,38.87
2023-05-14T15:55:09.447Z,38.78
2023-05-14T15:57:36.574Z,38.82
2023-05-14T16:00:10.734Z,38.70
2023-05-14T16:02:41.875Z,38.72
2023-05-14T16:05:09.420Z,38.71
2023-05-14T16:07:37.796Z,38.67
2023-05-14T16:10:06.225Z,38.58
2023-05-14T16:12:33.346Z,38.64
2023-05-14T16:15:00.486Z,38.51
2023-05-14T16:17:28.626Z,38.51
2023-05-14T16:19:56.541Z,38.42
2023-05-14T16:22:23.982Z,38.38
2023-05-14T16:24:51.146Z,38.32
2023-05-14T16:27:21.485Z,38.26
2023-05-14T16:29:48.575Z,38.22
2023-05-14T16:32:15.878Z,38.03
2023-05-14T16:34:50.050Z,38.00
2023-05-14T16:37:19.442Z,37.94
2023-05-14T16:39:48.274Z,37.92
2023-05-14T16:42:18.132Z,37.93
2023-05-14T16:44:48.383Z,37.92
2023-05-14T16:47:20.729Z,37.81
2023-05-14T16:49:50.453Z,37.73
2023-05-14T16:52:23.267Z,37.64
2023-05-14T16:54:54.882Z,37.61
2023-05-14T16:57:24.571Z,37.57
2023-05-14T16:59:51.817Z,37.57
2023-05-14T17:02:18.924Z,37.46
2023-05-14T17:04:46.479Z,37.56
2023-05-14T17:07:13.807Z,37.55
2023-05-14T17:09:41.334Z,37.49
2023-05-14T17:12:09.880Z,37.53
2023-05-14T17:14:36.984Z,37.30
2023-05-14T17:17:04.340Z,37.28
2023-05-14T17:19:31.960Z,37.20
2023-05-14T17:21:59.022Z,37.25
2023-05-14T17:24:26.186Z,37.23
2023-05-14T17:26:53.357Z,37.03
2023-05-14T17:29:20.714Z,37.15
2023-05-14T17:31:48.521Z,37.13
2023-05-14T17:34:16.557Z,37.10
2023-05-14T17:36:43.829Z,37.05
2023-05-14T17:39:10.840Z,36.95
2023-05-14T17:41:37.914Z,36.94
2023-05-14T17:44:05.021Z,36.75
2023-05-14T17:46:34.042Z,36.86
2023-05-14T17:49:02.285Z,36.80
2023-05-14T17:51:29.281Z,36.86
2023-05-14T17:53:56.598Z,36.90
2023-05-14T17:56:23.746Z,36.89
2023-05-14T17:58:51.020Z,36.87
2023-05-14T18:01:18.045Z,36.83
2023-05-14T18:03:45.515Z,36.76
2023-05-14T18:06:12.788Z,36.75
2023-05-14T18:08:39.760Z,36.64
2023-05-14T18:11:08.143Z,36.63
2023-05-14T18:13:35.271Z,36.64
2023-05-14T18:16:02.407Z,36.67
2023-05-14T18:18:30.140Z,36.68
2023-05-14T18:20:57.723Z,36.59
2023-05-14T18:23:24.773Z,36.54
2023-05-14T18:25:52.001Z,36.57
2023-05-14T18:28:19.268Z,36.56
2023-05-14T18:30:46.345Z,36.53
2023-05-14T18:33:13.640Z,36.51
2023-05-14T18:35:43.702Z,36.56
2023-05-14T18:38:14.016Z,36.56
2023-05-14T18:40:41.146Z,36.56
2023-05-14T18:43:08.106Z,36.41
2023-05-14T18:45:35.254Z,36.52
2023-05-14T18:48:02.365Z,36.51
2023-05-14T18:50:29.492Z,36.49
2023-05-14T18:52:56.848Z,36.43
2023-05-14T18:55:24.210Z,36.43
2023-05-14T18:57:52.097Z,36.43
2023-05-14T19:00:19.401Z,36.44
2023-05-14T19:02:46.577Z,36.29
2023-05-14T19:05:13.691Z,36.36
2023-05-14T19:07:42.046Z,36.33
2023-05-14T19:10:10.590Z,36.22
2023-05-14T19:12:37.840Z,36.21
2023-05-14T19:15:05.828Z,36.20
2023-05-14T19:17:33.855Z,36.16
2023-05-14T19:20:01.230Z,36.09
2023-05-14T19:22:28.594Z,36.09
2023-05-14T19:24:55.793Z,36.06
2023-05-14T19:27:24.641Z,36.03
2023-05-14T19:29:52.066Z,35.96
2023-05-14T19:32:19.381Z,35.93
2023-05-14T19:34:46.976Z,35.86
2023-05-14T19:37:14.937Z,35.79
2023-05-14T19:39:42.030Z,35.70
2023-05-14T19:42:09.077Z,35.71
2023-05-14T19:44:36.438Z,35.62
2023-05-14T19:47:04.147Z,35.55
2023-05-14T19:49:31.303Z,35.42
2023-05-14T19:51:59.826Z,35.43
2023-05-14T19:54:26.948Z,35.46
2023-05-14T19:56:53.997Z,35.42
2023-05-14T19:59:21.217Z,35.40
2023-05-14T20:01:48.653Z,35.31
2023-05-14T20:04:16.318Z,35.38
2023-05-14T20:06:45.749Z,35.34
2023-05-14T20:09:13.972Z,35.23
2023-05-14T20:11:41.101Z,35.25
2023-05-14T20:14:08.167Z,35.20
2023-05-14T20:16:35.212Z,35.22
2023-05-14T20:19:02.412Z,35.23
2023-05-14T20:21:29.815Z,35.22
2023-05-14T20:23:56.789Z,35.12
2023-05-14T20:26:24.253Z,35.02
2023-05-14T20:28:51.327Z,35.07
2023-05-14T20:31:19.420Z,34.95
2023-05-14T20:33:46.516Z,34.89
2023-05-14T20:36:13.587Z,34.95
2023-05-14T20:38:41.013Z,34.95
2023-05-14T20:41:08.366Z,34.96
2023-05-14T20:43:35.552Z,34.94
2023-05-14T20:46:03.044Z,34.94
2023-05-14T20:48:32.220Z,34.87
2023-05-14T20:50:59.265Z,34.81
2023-05-14T20:53:26.231Z,34.83
2023-05-14T20:55:53.301Z,34.78
2023-05-14T20:58:20.903Z,34.77
2023-05-14T21:00:48.077Z,34.83
2023-05-14T21:03:15.495Z,34.80
2023-05-14T21:05:43.975Z,34.73
2023-05-14T21:08:12.001Z,34.78
2023-05-14T21:10:39.089Z,34.85
2023-05-14T21:13:07.376Z,34.73
2023-05-14T21:15:35.036Z,34.68
2023-05-14T21:18:02.392Z,34.72
2023-05-14T21:20:44.433Z,34.70
2023-05-14T21:23:13.114Z,34.67
2023-05-14T21:25:40.055Z,34.73
2023-05-14T21:28:15.900Z,34.71
2023-05-14T21:30:43.701Z,34.75
2023-05-14T21:33:10.769Z,34.67
2023-05-14T21:35:41.789Z,34.69
2023-05-14T21:38:11.431Z,34.78
2023-05-14T21:40:38.466Z,34.72
2023-05-14T21:43:05.512Z,34.79
2023-05-14T21:45:32.863Z,34.63
2023-05-14T21:48:00.082Z,34.75
2023-05-14T21:50:29.132Z,34.64
